createdAt,value
2022-11-23T00:04:35.450Z,96746.00
2022-11-23T00:09:39.920Z,96741.00
2022-11-23T00:14:42.681Z,96750.00
2022-11-23T00:19:45.422Z,96742.00
2022-11-23T00:24:48.302Z,96740.00
2022-11-23T00:29:51.100Z,96746.00
2022-11-23T00:34:53.802Z,96764.00
2022-11-23T00:39:56.596Z,96743.00
2022-11-23T00:44:59.295Z,96752.00
2022-11-23T00:50:02.646Z,96756.00
2022-11-23T00:55:05.723Z,96765.00
2022-11-23T01:00:09.293Z,96763.00
2022-11-23T01:05:28.189Z,96770.00
2022-11-23T01:10:35.484Z,96764.00
2022-11-23T01:15:38.215Z,96769.00
2022-11-23T01:20:40.944Z,96770.00
2022-11-23T01:25:44.898Z,96771.00
2022-11-23T01:30:57.182Z,96773.00
2022-11-23T01:36:28.028Z,96771.00
2022-11-23T01:41:58.247Z,96768.00
2022-11-23T01:47:21.125Z,96767.00
2022-11-23T01:52:41.290Z,96759.00
2022-11-23T01:58:00.426Z,96759.00
2022-11-23T02:03:26.408Z,96762.00
2022-11-23T02:08:49.508Z,96761.00
2022-11-23T02:13:57.269Z,96769.00
2022-11-23T02:19:05.884Z,96770.00
2022-11-23T02:24:25.683Z,96763.00
2022-11-23T02:29:29.811Z,96766.00
2022-11-23T02:34:36.701Z,96770.00
2022-11-23T02:39:48.296Z,96776.00
2022-11-23T02:45:20.364Z,96771.00
2022-11-23T02:50:26.087Z,96778.00
2022-11-23T02:55:29.281Z,96783.00
2022-11-23T03:00:33.998Z,96788.00
2022-11-23T03:05:46.692Z,96791.00
2022-11-23T03:11:06.635Z,96784.00
2022-11-23T03:16:27.639Z,96793.00
2022-11-23T03:21:48.825Z,96788.00
2022-11-23T03:27:13.111Z,96792.00
2022-11-23T03:32:30.955Z,96791.00
2022-11-23T03:37:52.654Z,96786.00
2022-11-23T03:43:09.045Z,96795.00
2022-11-23T03:48:28.229Z,96800.00
2022-11-23T03:54:03.123Z,96801.00
2022-11-23T03:59:14.133Z,96798.00
2022-11-23T04:04:32.681Z,96791.00
2022-11-23T04:09:48.781Z,96783.00
2022-11-23T04:15:02.081Z,96788.00
2022-11-23T04:20:06.154Z,96785.00
2022-11-23T04:25:09.827Z,96781.00
2022-11-23T04:30:13.915Z,96790.00
2022-11-23T04:35:17.052Z,96789.00
2022-11-23T04:40:26.243Z,96778.00
2022-11-23T04:45:34.070Z,96793.00
2022-11-23T04:50:44.662Z,96794.00
2022-11-23T04:56:29.278Z,96783.00
2022-11-23T05:01:33.268Z,96791.00
2022-11-23T05:07:16.821Z,96780.00
2022-11-23T05:12:31.355Z,96784.00
2022-11-23T05:18:00.195Z,96787.00
2022-11-23T05:23:17.772Z,96790.00
2022-11-23T05:28:42.097Z,96790.00
2022-11-23T05:34:00.659Z,96789.00
2022-11-23T05:39:18.581Z,96787.00
2022-11-23T05:44:26.404Z,96793.00
2022-11-23T05:49:31.766Z,96801.00
2022-11-23T05:54:35.314Z,96796.00
2022-11-23T05:59:45.692Z,96795.00
2022-11-23T06:05:02.880Z,96804.00
2022-11-23T06:10:16.451Z,96794.00
2022-11-23T06:15:25.122Z,96797.00
2022-11-23T06:20:31.666Z,96795.00
2022-11-23T06:25:39.168Z,96803.00
2022-11-23T06:31:24.913Z,96801.00
2022-11-23T06:37:06.906Z,96809.00
2022-11-23T06:42:39.499Z,96803.00
2022-11-23T06:48:13.884Z,96816.00
2022-11-23T06:53:41.761Z,96807.00
2022-11-23T06:59:03.831Z,96811.00
2022-11-23T07:04:28.773Z,96818.00
2022-11-23T07:09:36.353Z,96833.00
2022-11-23T07:14:59.699Z,96829.00
2022-11-23T07:20:09.234Z,96836.00
2022-11-23T07:25:18.652Z,96837.00
2022-11-23T07:30:25.294Z,96846.00
2022-11-23T07:35:37.310Z,96850.00
2022-11-23T07:40:40.521Z,96845.00
2022-11-23T07:51:31.942Z,96857.00
2022-11-23T07:56:52.794Z,96862.00
2022-11-23T08:02:14.943Z,96859.00
2022-11-23T08:07:39.558Z,96867.00
2022-11-23T08:12:44.395Z,96877.00
2022-11-23T08:18:02.790Z,96865.00
2022-11-23T08:23:19.672Z,96863.00
2022-11-23T08:28:37.652Z,96866.00
2022-11-23T08:34:08.581Z,96870.00
2022-11-23T08:39:17.608Z,96874.00
2022-11-23T08:44:26.282Z,96874.00
2022-11-23T08:49:30.001Z,96869.00
2022-11-23T08:54:35.211Z,96877.00
2022-11-23T08:59:38.095Z,96870.00
2022-11-23T09:04:54.877Z,96872.00
2022-11-23T09:09:58.425Z,96869.00
2022-11-23T09:15:01.241Z,96871.00
2022-11-23T09:20:04.765Z,96873.00
2022-11-23T09:25:08.909Z,96876.00
2022-11-23T09:30:12.807Z,96867.00
2022-11-23T09:35:15.727Z,96866.00
2022-11-23T09:40:18.612Z,96871.00
2022-11-23T09:45:30.566Z,96867.00
2022-11-23T09:56:45.575Z,96863.00
2022-11-23T10:02:32.598Z,96860.00
2022-11-23T10:08:13.002Z,96853.00
2022-11-23T10:13:58.424Z,96844.00
2022-11-23T10:19:29.997Z,96846.00
2022-11-23T10:24:39.760Z,96844.00
2022-11-23T10:29:43.647Z,96843.00
2022-11-23T10:35:04.181Z,96840.00
2022-11-23T10:40:29.461Z,96843.00
2022-11-23T10:45:33.022Z,96845.00
2022-11-23T10:50:44.978Z,96822.00
2022-11-23T10:55:55.175Z,96826.00
2022-11-23T11:01:07.781Z,96827.00
2022-11-23T11:06:49.698Z,96816.00
2022-11-23T11:11:55.003Z,96826.00
2022-11-23T11:17:09.460Z,96826.00
2022-11-23T11:22:55.725Z,96819.00
2022-11-23T11:28:02.582Z,96815.00
2022-11-23T11:33:20.470Z,96812.00
2022-11-23T11:39:17.678Z,96818.00
2022-11-23T11:44:24.991Z,96823.00
2022-11-23T11:49:38.172Z,96822.00
2022-11-23T11:54:59.897Z,96823.00
2022-11-23T12:00:07.724Z,96822.00
2022-11-23T12:05:54.770Z,96836.00
2022-11-23T12:11:24.655Z,96836.00
2022-11-23T12:22:59.735Z,96825.00
2022-11-23T12:28:31.787Z,96838.00
2022-11-23T12:33:59.710Z,96835.00
2022-11-23T12:39:23.577Z,96833.00
2022-11-23T12:44:41.877Z,96823.00
2022-11-23T12:49:47.105Z,96827.00
2022-11-23T12:54:58.803Z,96827.00
2022-11-23T13:00:18.802Z,96819.00
2022-11-23T13:06:12.894Z,96818.00
2022-11-23T13:12:03.039Z,96822.00
2022-11-23T13:17:57.694Z,96831.00
2022-11-23T13:23:13.303Z,96827.00
2022-11-23T13:28:49.178Z,96824.00
2022-11-23T13:34:04.267Z,96824.00
2022-11-23T13:39:44.180Z,96828.00
2022-11-23T13:44:47.017Z,96825.00
2022-11-23T13:50:07.673Z,96831.00
2022-11-23T13:55:13.173Z,96818.00
2022-11-23T14:01:02.614Z,96818.00
2022-11-23T14:07:17.309Z,96828.00
2022-11-23T14:12:46.643Z,96822.00
2022-11-23T14:18:18.922Z,96825.00
2022-11-23T14:24:14.189Z,96838.00
2022-11-23T14:29:28.335Z,96837.00
2022-11-23T14:34:44.848Z,96845.00
2022-11-23T14:39:58.270Z,96843.00
2022-11-23T14:45:04.968Z,96850.00
2022-11-23T14:50:26.251Z,96853.00
2022-11-23T14:55:30.436Z,96851.00
2022-11-23T15:00:39.270Z,96862.00
2022-11-23T15:05:59.687Z,96856.00
2022-11-23T15:11:32.646Z,96867.00
2022-11-23T15:17:04.725Z,96869.00
2022-11-23T15:22:34.640Z,96871.00
2022-11-23T15:27:46.271Z,96877.00
2022-11-23T15:33:01.849Z,96883.00
2022-11-23T15:38:25.711Z,96876.00
2022-11-23T15:43:39.933Z,96880.00
2022-11-23T15:49:00.754Z,96889.00
2022-11-23T15:54:18.576Z,96872.00
2022-11-23T15:59:30.533Z,96886.00
2022-11-23T16:04:51.861Z,96876.00
2022-11-23T16:10:18.944Z,96882.00
2022-11-23T16:15:38.343Z,96884.00
2022-11-23T16:20:47.064Z,96871.00
2022-11-23T16:26:26.087Z,96878.00
2022-11-23T16:32:09.063Z,96881.00
2022-11-23T16:37:45.481Z,96881.00
2022-11-23T16:42:57.495Z,96889.00
2022-11-23T16:48:37.320Z,96885.00
2022-11-23T16:54:16.077Z,96887.00
2022-11-23T16:59:27.235Z,96890.00
2022-11-23T17:04:47.483Z,96898.00
2022-11-23T17:10:17.439Z,96893.00
2022-11-23T17:15:39.056Z,96898.00
2022-11-23T17:20:46.748Z,96893.00
2022-11-23T17:26:03.184Z,96902.00
2022-11-23T17:31:27.095Z,96901.00
2022-11-23T17:36:58.427Z,96894.00
2022-11-23T17:42:16.574Z,96890.00
2022-11-23T17:47:45.333Z,96890.00
2022-11-23T17:53:00.098Z,96892.00
2022-11-23T17:58:15.767Z,96893.00
2022-11-23T18:03:38.177Z,96903.00
2022-11-23T18:08:48.030Z,96893.00
2022-11-23T18:14:00.382Z,96905.00
2022-11-23T18:19:11.556Z,96903.00
2022-11-23T18:24:20.009Z,96899.00
2022-11-23T18:29:26.798Z,96894.00
2022-11-23T18:34:29.915Z,96906.00
2022-11-23T18:39:36.143Z,96911.00
2022-11-23T18:44:39.536Z,96918.00
2022-11-23T18:49:42.345Z,96913.00
2022-11-23T18:54:47.903Z,96923.00
2022-11-23T18:59:58.062Z,96919.00
2022-11-23T19:10:33.226Z,96917.00
2022-11-23T19:15:38.276Z,96930.00
2022-11-23T19:20:41.104Z,96935.00
2022-11-23T19:25:43.797Z,96939.00
2022-11-23T19:30:49.361Z,96942.00
2022-11-23T19:36:35.286Z,96942.00
2022-11-23T19:42:01.467Z,96944.00
2022-11-23T19:47:23.048Z,96964.00
2022-11-23T19:53:10.773Z,96952.00
2022-11-23T19:58:23.064Z,96953.00
2022-11-23T20:03:37.505Z,96958.00
2022-11-23T20:08:49.149Z,96951.00
2022-11-23T20:13:56.214Z,96968.00
2022-11-23T20:19:13.440Z,96970.00
2022-11-23T20:24:20.335Z,96979.00
2022-11-23T20:29:23.522Z,96980.00
2022-11-23T20:34:26.602Z,96997.00
2022-11-23T20:39:29.520Z,96985.00
2022-11-23T20:44:34.102Z,96999.00
2022-11-23T20:49:37.283Z,97005.00
2022-11-23T20:54:41.174Z,96999.00
2022-11-23T20:59:43.914Z,96999.00
2022-11-23T21:04:58.048Z,96991.00
2022-11-23T21:10:03.828Z,97012.00
2022-11-23T21:15:07.012Z,97007.00
2022-11-23T21:20:10.064Z,97014.00
2022-11-23T21:25:12.878Z,97024.00
2022-11-23T21:30:15.730Z,97022.00
2022-11-23T21:35:18.530Z,97026.00
2022-11-23T21:40:21.303Z,97029.00
2022-11-23T21:45:24.072Z,97020.00
2022-11-23T21:50:27.731Z,97036.00
2022-11-23T21:55:31.457Z,97037.00
2022-11-23T22:00:34.317Z,97039.00
2022-11-23T22:05:58.516Z,97041.00
2022-11-23T22:11:30.850Z,97046.00
2022-11-23T22:17:06.282Z,97040.00
2022-11-23T22:22:24.159Z,97050.00
2022-11-23T22:27:52.143Z,97058.00
2022-11-23T22:33:09.293Z,97045.00
2022-11-23T22:38:24.101Z,97064.00
2022-11-23T22:43:45.454Z,97070.00
2022-11-23T22:49:04.236Z,97072.00
2022-11-23T22:54:14.095Z,97065.00
2022-11-23T22:59:22.283Z,97076.00
2022-11-23T23:04:45.446Z,97076.00
2022-11-23T23:10:05.187Z,97079.00
2022-11-23T23:15:11.257Z,97063.00
2022-11-23T23:20:14.310Z,97066.00
2022-11-23T23:25:17.221Z,97081.00
2022-11-23T23:30:20.557Z,97094.00
2022-11-23T23:35:23.274Z,97090.00
2022-11-23T23:40:26.106Z,97082.00
2022-11-23T23:45:28.905Z,97084.00
2022-11-23T23:50:31.641Z,97079.00
2022-11-23T23:55:34.360Z,97100.00
